createdAt,value
2022-10-01T00:00:08.144Z,364
2022-10-01T00:01:07.944Z,352
2022-10-01T00:02:07.441Z,348
2022-10-01T00:03:08.322Z,355
2022-10-01T00:04:07.629Z,357
2022-10-01T00:05:07.898Z,363
2022-10-01T00:06:08.115Z,355
2022-10-01T00:07:08.248Z,347
2022-10-01T00:08:07.433Z,350
2022-10-01T00:09:07.656Z,361
2022-10-01T00:10:08.046Z,369
2022-10-01T00:11:07.186Z,329
2022-10-01T00:12:07.064Z,341
2022-10-01T00:13:08.028Z,346
2022-10-01T00:14:07.989Z,360
2022-10-01T00:15:10.662Z,361
2022-10-01T00:16:07.806Z,347
2022-10-01T00:17:08.144Z,345
2022-10-01T00:18:08.081Z,360
2022-10-01T00:19:07.138Z,353
2022-10-01T00:20:14.119Z,350
2022-10-01T00:22:07.380Z,347
2022-10-01T00:23:07.533Z,348
2022-10-01T00:24:07.648Z,346
2022-10-01T00:25:07.612Z,353
2022-10-01T00:26:07.640Z,355
2022-10-01T00:27:07.912Z,350
2022-10-01T00:28:07.951Z,357
2022-10-01T00:29:07.539Z,353
2022-10-01T00:30:08.026Z,360
2022-10-01T00:31:08.041Z,359
2022-10-01T00:32:07.149Z,353
2022-10-01T00:36:08.024Z,358
2022-10-01T00:37:08.261Z,370
2022-10-01T00:38:07.486Z,363
2022-10-01T00:39:07.623Z,355
2022-10-01T00:40:07.566Z,362
2022-10-01T00:41:07.672Z,350
2022-10-01T00:42:07.539Z,345
2022-10-01T00:43:07.316Z,355
2022-10-01T00:44:07.275Z,351
2022-10-01T00:46:07.247Z,350
2022-10-01T00:47:07.371Z,353
2022-10-01T00:48:07.316Z,350
2022-10-01T00:49:07.091Z,355
2022-10-01T00:50:08.109Z,364
2022-10-01T00:51:07.223Z,356
2022-10-01T00:52:07.150Z,352
2022-10-01T00:54:07.603Z,353
2022-10-01T00:55:07.518Z,351
2022-10-01T00:56:07.394Z,350
2022-10-01T00:57:07.264Z,355
2022-10-01T00:58:07.158Z,352
2022-10-01T00:59:07.932Z,350
2022-10-01T01:00:08.557Z,356
2022-10-01T01:01:07.222Z,360
2022-10-01T01:02:07.235Z,357
2022-10-01T01:04:07.802Z,342
2022-10-01T01:05:07.491Z,338
2022-10-01T01:06:07.223Z,339
2022-10-01T01:07:07.838Z,335
2022-10-01T01:08:07.502Z,334
2022-10-01T01:09:07.615Z,353
2022-10-01T01:10:07.422Z,371
2022-10-01T01:11:07.290Z,357
2022-10-01T01:12:06.938Z,365
2022-10-01T01:13:07.415Z,373
2022-10-01T01:14:07.109Z,356
2022-10-01T01:15:08.210Z,343
2022-10-01T01:16:07.203Z,339
2022-10-01T01:17:07.186Z,345
2022-10-01T01:18:07.956Z,352
2022-10-01T01:20:07.627Z,353
2022-10-01T01:21:07.457Z,338
2022-10-01T01:22:07.253Z,336
2022-10-01T01:23:07.039Z,341
2022-10-01T01:24:07.610Z,354
2022-10-01T01:25:07.479Z,349
2022-10-01T01:26:07.476Z,342
2022-10-01T01:27:07.150Z,334
2022-10-01T01:29:07.049Z,362
2022-10-01T01:30:08.010Z,366
2022-10-01T01:32:10.420Z,353
2022-10-01T01:33:07.833Z,349
2022-10-01T01:34:07.776Z,341
2022-10-01T01:35:07.700Z,343
2022-10-01T01:36:07.312Z,341
2022-10-01T01:37:07.920Z,338
2022-10-01T01:38:07.503Z,343
2022-10-01T01:39:07.320Z,349
2022-10-01T01:40:07.005Z,343
2022-10-01T01:41:07.778Z,354
2022-10-01T01:42:07.375Z,352
2022-10-01T01:43:07.030Z,350
2022-10-01T01:44:07.724Z,344
2022-10-01T01:45:07.572Z,342
2022-10-01T01:46:07.230Z,343
2022-10-01T01:47:07.161Z,336
2022-10-01T01:48:07.621Z,337
2022-10-01T01:49:07.390Z,361
2022-10-01T01:50:07.181Z,335
2022-10-01T01:51:07.706Z,334
2022-10-01T01:52:07.558Z,344
2022-10-01T01:53:07.311Z,337
2022-10-01T01:54:29.756Z,348
2022-10-01T01:55:07.409Z,350
2022-10-01T01:56:07.441Z,355
2022-10-01T01:57:07.331Z,347
2022-10-01T01:58:07.230Z,353
2022-10-01T01:59:06.938Z,348
2022-10-01T02:00:08.310Z,340
2022-10-01T02:01:07.260Z,342
2022-10-01T02:02:07.426Z,354
2022-10-01T02:03:07.701Z,351
2022-10-01T02:04:07.551Z,348
2022-10-01T02:05:07.438Z,357
2022-10-01T02:06:06.924Z,355
2022-10-01T02:07:07.802Z,332
2022-10-01T02:08:07.543Z,371
2022-10-01T02:09:07.312Z,368
2022-10-01T02:10:07.340Z,345
2022-10-01T02:11:07.228Z,343
2022-10-01T02:12:07.229Z,342
2022-10-01T02:13:07.203Z,340
2022-10-01T02:14:06.984Z,332
2022-10-01T02:15:08.102Z,338
2022-10-01T02:16:07.877Z,346
2022-10-01T02:18:07.661Z,351
2022-10-01T02:19:07.135Z,352
2022-10-01T02:20:08.323Z,348
2022-10-01T02:21:07.088Z,347
2022-10-01T02:22:07.486Z,333
2022-10-01T02:23:07.170Z,339
2022-10-01T02:24:07.687Z,342
2022-10-01T02:25:07.651Z,343
2022-10-01T02:26:07.450Z,346
2022-10-01T02:27:07.213Z,334
2022-10-01T02:28:07.915Z,380
2022-10-01T02:29:07.750Z,352
2022-10-01T02:30:07.726Z,356
2022-10-01T02:31:07.574Z,354
2022-10-01T02:32:07.577Z,351
2022-10-01T02:33:07.464Z,348
2022-10-01T02:34:12.197Z,347
2022-10-01T02:35:07.246Z,343
2022-10-01T02:36:08.195Z,351
2022-10-01T02:37:07.792Z,352
2022-10-01T02:38:07.663Z,357
2022-10-01T02:39:07.646Z,351
2022-10-01T02:40:07.652Z,352
2022-10-01T02:41:07.398Z,359
2022-10-01T02:42:07.257Z,353
2022-10-01T02:43:07.241Z,349
2022-10-01T02:44:07.082Z,344
2022-10-01T02:45:07.914Z,350
2022-10-01T02:46:07.763Z,342
2022-10-01T02:47:07.845Z,334
2022-10-01T02:48:07.809Z,337
2022-10-01T02:49:07.559Z,336
2022-10-01T02:50:07.172Z,338
2022-10-01T02:51:07.864Z,341
2022-10-01T02:52:07.785Z,349
2022-10-01T02:53:07.771Z,335
2022-10-01T02:55:07.282Z,340
2022-10-01T02:56:07.227Z,350
2022-10-01T02:57:07.435Z,346
2022-10-01T02:58:07.382Z,339
2022-10-01T02:59:07.345Z,346
2022-10-01T03:00:08.549Z,343
2022-10-01T03:02:07.709Z,361
2022-10-01T03:03:07.766Z,356
2022-10-01T03:04:07.849Z,349
2022-10-01T03:05:07.851Z,348
2022-10-01T03:06:08.202Z,344
2022-10-01T03:07:07.005Z,330
2022-10-01T03:08:08.088Z,337
2022-10-01T03:09:07.912Z,357
2022-10-01T03:10:07.707Z,358
2022-10-01T03:11:07.941Z,347
2022-10-01T03:12:07.770Z,344
2022-10-01T03:13:07.428Z,341
2022-10-01T03:14:07.666Z,337
2022-10-01T03:15:07.818Z,331
2022-10-01T03:16:07.831Z,335
2022-10-01T03:17:07.896Z,342
2022-10-01T03:18:07.712Z,347
2022-10-01T03:19:07.714Z,342
2022-10-01T03:20:07.820Z,351
2022-10-01T03:21:08.031Z,360
2022-10-01T03:22:07.971Z,353
2022-10-01T03:23:08.024Z,359
2022-10-01T03:24:07.677Z,349
2022-10-01T03:25:07.739Z,332
2022-10-01T03:26:07.462Z,338
2022-10-01T03:27:07.455Z,342
2022-10-01T03:28:07.553Z,339
2022-10-01T03:29:07.933Z,333
2022-10-01T03:30:08.156Z,371
2022-10-01T03:31:07.123Z,350
2022-10-01T03:32:07.238Z,345
2022-10-01T03:33:07.262Z,344
2022-10-01T03:34:06.910Z,354
2022-10-01T03:35:07.546Z,352
2022-10-01T03:36:07.411Z,349
2022-10-01T03:37:07.239Z,348
2022-10-01T03:38:07.828Z,347
2022-10-01T03:39:07.970Z,349
2022-10-01T03:40:08.048Z,350
2022-10-01T03:41:07.748Z,355
2022-10-01T03:42:07.584Z,338
2022-10-01T03:43:07.467Z,344
2022-10-01T03:44:07.240Z,361
2022-10-01T03:45:07.396Z,357
2022-10-01T03:46:07.345Z,345
2022-10-01T03:47:07.293Z,344
2022-10-01T03:48:07.357Z,347
2022-10-01T03:49:07.034Z,332
2022-10-01T03:50:07.975Z,352
2022-10-01T03:51:07.418Z,341
2022-10-01T03:52:07.481Z,345
2022-10-01T03:53:07.396Z,341
2022-10-01T03:54:07.345Z,343
2022-10-01T03:55:07.260Z,342
2022-10-01T03:56:07.200Z,343
2022-10-01T03:57:07.744Z,344
2022-10-01T03:58:07.594Z,338
2022-10-01T03:59:07.686Z,345
2022-10-01T04:01:08.012Z,357
2022-10-01T04:02:07.847Z,360
2022-10-01T04:03:07.980Z,357
2022-10-01T04:04:07.997Z,354
2022-10-01T04:05:07.883Z,353
2022-10-01T04:06:08.045Z,356
2022-10-01T04:07:07.317Z,358
2022-10-01T04:09:07.581Z,349
2022-10-01T04:10:07.881Z,343
2022-10-01T04:11:07.715Z,336
2022-10-01T04:12:07.848Z,345
2022-10-01T04:13:07.599Z,347
2022-10-01T04:14:07.068Z,341
2022-10-01T04:15:07.939Z,352
2022-10-01T04:16:07.607Z,349
2022-10-01T04:17:08.039Z,354
2022-10-01T04:18:07.823Z,349
2022-10-01T04:19:07.642Z,351
2022-10-01T04:20:07.689Z,355
2022-10-01T04:21:07.845Z,360
2022-10-01T04:22:07.693Z,359
2022-10-01T04:23:07.641Z,353
2022-10-01T04:25:07.825Z,347
2022-10-01T04:26:07.765Z,359
2022-10-01T04:27:07.456Z,351
2022-10-01T04:28:07.414Z,345
2022-10-01T04:29:07.278Z,348
2022-10-01T04:31:07.784Z,377
2022-10-01T04:32:08.132Z,345
2022-10-01T04:34:07.700Z,342
2022-10-01T04:35:07.827Z,339
2022-10-01T04:36:07.898Z,351
2022-10-01T04:37:07.899Z,346
2022-10-01T04:38:07.780Z,347
2022-10-01T04:39:08.039Z,354
2022-10-01T04:40:08.051Z,353
2022-10-01T04:41:07.884Z,357
2022-10-01T04:42:07.857Z,354
2022-10-01T04:43:07.977Z,352
2022-10-01T04:44:07.696Z,355
2022-10-01T04:45:08.091Z,348
2022-10-01T04:46:08.223Z,347
2022-10-01T04:47:07.560Z,345
2022-10-01T04:48:07.623Z,354
2022-10-01T04:50:07.707Z,331
2022-10-01T04:51:07.543Z,365
2022-10-01T04:52:07.710Z,351
2022-10-01T04:53:07.774Z,356
2022-10-01T04:54:07.937Z,355
2022-10-01T04:55:07.738Z,363
2022-10-01T04:56:07.590Z,360
2022-10-01T04:57:07.762Z,359
2022-10-01T04:58:07.812Z,349
2022-10-01T04:59:07.644Z,337
2022-10-01T05:01:07.886Z,345
2022-10-01T05:02:07.990Z,354
2022-10-01T05:03:08.080Z,353
2022-10-01T05:04:08.240Z,351
2022-10-01T05:05:07.784Z,355
2022-10-01T05:06:07.734Z,353
2022-10-01T05:07:07.897Z,354
2022-10-01T05:08:07.210Z,348
2022-10-01T05:09:07.388Z,339
2022-10-01T05:10:07.859Z,349
2022-10-01T05:11:07.951Z,342
2022-10-01T05:12:07.755Z,348
2022-10-01T05:13:08.027Z,347
2022-10-01T05:14:07.972Z,352
2022-10-01T05:15:08.218Z,355
2022-10-01T05:16:07.241Z,358
2022-10-01T05:17:07.295Z,352
2022-10-01T05:18:07.412Z,359
2022-10-01T05:19:07.678Z,365
2022-10-01T05:20:07.948Z,352
2022-10-01T05:21:08.101Z,346
2022-10-01T05:22:07.425Z,357
2022-10-01T05:23:07.828Z,358
2022-10-01T05:25:07.947Z,363
2022-10-01T05:26:07.722Z,360
2022-10-01T05:29:07.979Z,356
2022-10-01T05:30:08.343Z,350
2022-10-01T05:31:07.674Z,349
2022-10-01T05:32:07.793Z,343
2022-10-01T05:33:07.579Z,342
2022-10-01T05:34:07.466Z,356
2022-10-01T05:35:07.705Z,358
2022-10-01T05:36:07.712Z,357
2022-10-01T05:37:07.798Z,356
2022-10-01T05:38:07.887Z,355
2022-10-01T05:39:07.878Z,354
2022-10-01T05:40:08.037Z,361
2022-10-01T05:41:07.869Z,354
2022-10-01T05:42:07.891Z,350
2022-10-01T05:43:07.743Z,349
2022-10-01T05:44:07.571Z,351
2022-10-01T05:45:07.861Z,348
2022-10-01T05:46:07.939Z,362
2022-10-01T05:47:08.124Z,357
2022-10-01T05:48:07.225Z,360
2022-10-01T05:49:07.488Z,364
2022-10-01T05:50:07.576Z,363
2022-10-01T05:51:07.741Z,354
2022-10-01T05:52:07.770Z,359
2022-10-01T05:53:07.837Z,371
2022-10-01T05:54:07.865Z,352
2022-10-01T05:55:07.668Z,347
2022-10-01T05:56:07.701Z,356
2022-10-01T05:57:07.654Z,358
2022-10-01T05:58:07.743Z,355
2022-10-01T05:59:07.599Z,358
2022-10-01T06:00:08.803Z,359
2022-10-01T06:02:07.859Z,354
2022-10-01T06:03:07.864Z,344
2022-10-01T06:04:08.214Z,352
2022-10-01T06:05:08.096Z,346
2022-10-01T06:06:07.538Z,344
2022-10-01T06:07:07.673Z,353
2022-10-01T06:09:07.559Z,348
2022-10-01T06:10:08.083Z,352
2022-10-01T06:11:07.765Z,358
2022-10-01T06:12:07.937Z,353
2022-10-01T06:13:07.412Z,390
2022-10-01T06:14:07.439Z,346
2022-10-01T06:15:07.828Z,355
2022-10-01T06:16:07.997Z,349
2022-10-01T06:17:08.162Z,350
2022-10-01T06:18:07.208Z,356
2022-10-01T06:19:07.117Z,355
2022-10-01T06:20:07.848Z,357
2022-10-01T06:21:08.061Z,364
2022-10-01T06:22:07.826Z,368
2022-10-01T06:23:07.964Z,356
2022-10-01T06:24:08.182Z,350
2022-10-01T06:25:07.802Z,351
2022-10-01T06:27:07.069Z,354
2022-10-01T06:28:07.955Z,348
2022-10-01T06:29:07.395Z,345
2022-10-01T06:30:08.017Z,354
2022-10-01T06:31:08.051Z,358
2022-10-01T06:32:08.279Z,345
2022-10-01T06:33:07.649Z,351
2022-10-01T06:34:07.813Z,363
2022-10-01T06:35:08.299Z,349
2022-10-01T06:36:07.767Z,348
2022-10-01T06:37:07.884Z,351
2022-10-01T06:38:27.130Z,354
2022-10-01T06:39:08.171Z,348
2022-10-01T06:40:07.816Z,345
2022-10-01T06:41:08.239Z,338
2022-10-01T06:42:07.513Z,345
2022-10-01T06:43:07.677Z,363
2022-10-01T06:45:08.239Z,351
2022-10-01T06:46:07.487Z,347
2022-10-01T06:47:07.997Z,345
2022-10-01T06:48:08.066Z,341
2022-10-01T06:49:08.076Z,336
2022-10-01T06:50:07.707Z,340
2022-10-01T06:51:08.022Z,344
2022-10-01T06:52:08.255Z,343
2022-10-01T06:53:07.701Z,350
2022-10-01T06:54:07.752Z,367
2022-10-01T06:55:08.002Z,364
2022-10-01T06:56:07.767Z,370
2022-10-01T06:57:08.089Z,358
2022-10-01T06:58:08.072Z,362
2022-10-01T06:59:08.155Z,358
2022-10-01T07:00:09.111Z,355
2022-10-01T07:01:08.215Z,358
2022-10-01T07:02:07.716Z,357
2022-10-01T07:03:08.052Z,360
2022-10-01T07:04:07.339Z,352
2022-10-01T07:05:07.553Z,344
2022-10-01T07:06:07.996Z,345
2022-10-01T07:07:08.001Z,348
2022-10-01T07:08:07.543Z,353
2022-10-01T07:09:07.988Z,350
2022-10-01T07:11:08.064Z,346
2022-10-01T07:12:07.382Z,334
2022-10-01T07:13:07.676Z,367
2022-10-01T07:14:07.648Z,353
2022-10-01T07:15:07.893Z,363
2022-10-01T07:16:08.064Z,369
2022-10-01T07:17:07.406Z,365
2022-10-01T07:18:07.890Z,363
2022-10-01T07:21:08.119Z,345
2022-10-01T07:22:07.518Z,344
2022-10-01T07:23:07.946Z,359
2022-10-01T07:24:07.285Z,356
2022-10-01T07:25:07.748Z,357
2022-10-01T07:27:07.940Z,356
2022-10-01T07:28:08.177Z,359
2022-10-01T07:29:07.322Z,361
2022-10-01T07:30:08.302Z,358
2022-10-01T07:31:07.489Z,343
2022-10-01T07:32:08.220Z,364
2022-10-01T07:33:07.467Z,344
2022-10-01T07:34:07.942Z,343
2022-10-01T07:35:08.034Z,350
2022-10-01T07:36:08.127Z,357
2022-10-01T07:37:07.507Z,350
2022-10-01T07:38:07.712Z,354
2022-10-01T07:39:07.967Z,350
2022-10-01T07:40:07.960Z,348
2022-10-01T07:41:08.221Z,350
2022-10-01T07:42:07.331Z,360
2022-10-01T07:43:08.067Z,352
2022-10-01T07:44:07.221Z,353
2022-10-01T07:45:07.875Z,367
2022-10-01T07:46:07.707Z,370
2022-10-01T07:47:07.922Z,359
2022-10-01T07:48:07.990Z,349
2022-10-01T07:49:07.948Z,357
2022-10-01T07:50:08.031Z,354
2022-10-01T07:51:07.986Z,339
2022-10-01T07:52:13.032Z,336
2022-10-01T07:53:07.433Z,344
2022-10-01T07:54:07.539Z,350
2022-10-01T07:55:07.741Z,346
2022-10-01T07:56:07.696Z,354
2022-10-01T07:57:07.770Z,367
2022-10-01T07:58:07.761Z,353
2022-10-01T07:59:07.674Z,350
2022-10-01T08:01:08.126Z,352
2022-10-01T08:04:07.999Z,343
2022-10-01T08:05:07.512Z,341
2022-10-01T08:06:07.855Z,344
2022-10-01T08:07:07.914Z,342
2022-10-01T08:08:08.007Z,343
2022-10-01T08:09:08.026Z,349
2022-10-01T08:10:07.822Z,344
2022-10-01T08:11:07.907Z,350
2022-10-01T08:12:07.393Z,359
2022-10-01T08:13:07.302Z,361
2022-10-01T08:14:07.404Z,357
2022-10-01T08:15:07.638Z,349
2022-10-01T08:17:07.404Z,350
2022-10-01T08:18:08.195Z,344
2022-10-01T08:19:07.477Z,336
2022-10-01T08:20:07.578Z,342
2022-10-01T08:21:07.900Z,346
2022-10-01T08:22:07.893Z,350
2022-10-01T08:23:08.121Z,339
2022-10-01T08:24:07.589Z,348
2022-10-01T08:25:07.875Z,344
2022-10-01T08:26:07.907Z,334
2022-10-01T08:27:08.150Z,341
2022-10-01T08:28:07.365Z,347
2022-10-01T08:30:07.848Z,337
2022-10-01T08:31:07.876Z,341
2022-10-01T08:32:08.225Z,345
2022-10-01T08:33:07.647Z,343
2022-10-01T08:36:07.885Z,342
2022-10-01T08:37:07.765Z,336
2022-10-01T08:38:07.943Z,337
2022-10-01T08:39:08.249Z,343
2022-10-01T08:40:07.899Z,352
2022-10-01T08:41:07.938Z,347
2022-10-01T08:42:07.723Z,338
2022-10-01T08:43:07.764Z,335
2022-10-01T08:44:07.705Z,330
2022-10-01T08:45:07.946Z,338
2022-10-01T08:46:07.360Z,333
2022-10-01T08:47:07.394Z,340
2022-10-01T08:48:07.262Z,335
2022-10-01T08:49:07.311Z,342
2022-10-01T08:50:07.388Z,344
2022-10-01T08:52:07.844Z,349
2022-10-01T08:53:07.745Z,341
2022-10-01T08:54:07.538Z,333
2022-10-01T08:55:08.005Z,329
2022-10-01T08:56:07.258Z,333
2022-10-01T08:57:07.358Z,353
2022-10-01T08:58:07.353Z,351
2022-10-01T08:59:07.150Z,348
2022-10-01T09:00:08.791Z,340
2022-10-01T09:01:07.948Z,341
2022-10-01T09:02:07.497Z,345
2022-10-01T09:03:07.965Z,349
2022-10-01T09:04:08.356Z,321
2022-10-01T09:05:08.017Z,360
2022-10-01T09:06:08.062Z,333
2022-10-01T09:07:08.007Z,329
2022-10-01T09:08:08.284Z,334
2022-10-01T09:09:07.929Z,328
2022-10-01T09:10:08.206Z,326
2022-10-01T09:12:08.036Z,345
2022-10-01T09:13:07.485Z,347
2022-10-01T09:14:07.562Z,340
2022-10-01T09:15:08.380Z,345
2022-10-01T09:17:07.845Z,335
2022-10-01T09:18:07.856Z,343
2022-10-01T09:19:07.829Z,351
2022-10-01T09:20:08.039Z,342
2022-10-01T09:21:07.399Z,343
2022-10-01T09:22:07.736Z,336
2022-10-01T09:23:07.492Z,315
2022-10-01T09:24:07.839Z,351
2022-10-01T09:25:07.877Z,333
2022-10-01T09:26:08.276Z,341
2022-10-01T09:28:07.811Z,336
2022-10-01T09:29:08.242Z,343
2022-10-01T09:30:08.055Z,339
2022-10-01T09:31:07.502Z,328
2022-10-01T09:33:07.218Z,325
2022-10-01T09:34:07.226Z,333
2022-10-01T09:35:07.520Z,331
2022-10-01T09:36:07.931Z,336
2022-10-01T09:37:08.077Z,342
2022-10-01T09:38:07.580Z,335
2022-10-01T09:39:07.871Z,338
2022-10-01T09:40:08.170Z,340
2022-10-01T09:41:07.440Z,342
2022-10-01T09:42:07.791Z,337
2022-10-01T09:43:07.735Z,338
2022-10-01T09:44:07.693Z,341
2022-10-01T09:45:08.046Z,336
2022-10-01T09:46:07.261Z,334
2022-10-01T09:47:07.548Z,325
2022-10-01T09:48:07.795Z,333
2022-10-01T09:49:07.960Z,337
2022-10-01T09:50:08.190Z,343
2022-10-01T09:51:07.712Z,345
2022-10-01T09:52:07.930Z,346
2022-10-01T09:53:08.035Z,343
2022-10-01T09:54:08.039Z,336
2022-10-01T09:55:08.178Z,332
2022-10-01T09:56:07.759Z,324
2022-10-01T09:57:08.111Z,328
2022-10-01T09:58:08.103Z,333
2022-10-01T09:59:07.961Z,335
2022-10-01T10:00:08.582Z,337
2022-10-01T10:02:08.393Z,337
2022-10-01T10:03:08.124Z,330
2022-10-01T10:04:07.641Z,325
2022-10-01T10:05:07.943Z,335
2022-10-01T10:06:08.229Z,337
2022-10-01T10:07:07.404Z,334
2022-10-01T10:08:07.816Z,339
2022-10-01T10:09:08.031Z,338
2022-10-01T10:10:07.435Z,325
2022-10-01T10:11:07.668Z,327
2022-10-01T10:12:08.020Z,338
2022-10-01T10:13:08.065Z,325
2022-10-01T10:14:07.296Z,328
2022-10-01T10:15:07.925Z,335
2022-10-01T10:16:08.016Z,339
2022-10-01T10:17:07.510Z,347
2022-10-01T10:18:07.781Z,357
2022-10-01T10:19:07.965Z,343
2022-10-01T10:20:07.426Z,347
2022-10-01T10:21:07.582Z,344
2022-10-01T10:22:07.742Z,340
2022-10-01T10:23:07.791Z,343
2022-10-01T10:24:08.060Z,333
2022-10-01T10:25:07.605Z,327
2022-10-01T10:26:07.772Z,331
2022-10-01T10:27:07.898Z,325
2022-10-01T10:28:07.797Z,330
2022-10-01T10:29:07.942Z,328
2022-10-01T10:30:08.458Z,335
2022-10-01T10:31:07.700Z,341
2022-10-01T10:32:07.939Z,333
2022-10-01T10:33:08.293Z,321
2022-10-01T10:34:08.226Z,322
2022-10-01T10:35:07.692Z,342
2022-10-01T10:37:07.803Z,329
2022-10-01T10:38:07.902Z,340
2022-10-01T10:39:08.353Z,332
2022-10-01T10:41:07.514Z,321
2022-10-01T10:42:08.011Z,320
2022-10-01T10:43:08.358Z,322
2022-10-01T10:45:08.517Z,328
2022-10-01T10:46:08.021Z,324
2022-10-01T10:47:07.365Z,317
2022-10-01T10:48:07.696Z,324
2022-10-01T10:49:07.556Z,335
2022-10-01T10:50:07.537Z,343
2022-10-01T10:51:07.819Z,358
2022-10-01T10:52:07.942Z,317
2022-10-01T10:53:08.035Z,331
2022-10-01T10:54:07.421Z,339
2022-10-01T10:55:08.032Z,337
2022-10-01T10:56:12.545Z,327
2022-10-01T10:57:07.275Z,328
2022-10-01T10:58:07.416Z,338
2022-10-01T10:59:07.771Z,343
2022-10-01T11:00:08.944Z,336
2022-10-01T11:01:07.932Z,327
2022-10-01T11:02:08.229Z,325
2022-10-01T11:03:07.979Z,322
2022-10-01T11:04:07.188Z,335
2022-10-01T11:05:07.540Z,333
2022-10-01T11:06:07.932Z,336
2022-10-01T11:07:07.394Z,326
2022-10-01T11:08:07.807Z,318
2022-10-01T11:09:08.242Z,386
2022-10-01T11:10:07.495Z,339
2022-10-01T11:11:07.836Z,325
2022-10-01T11:12:21.762Z,326
2022-10-01T11:13:07.859Z,323
2022-10-01T11:14:07.795Z,329
2022-10-01T11:15:08.080Z,337
2022-10-01T11:16:07.564Z,327
2022-10-01T11:17:07.994Z,329
2022-10-01T11:18:08.056Z,334
2022-10-01T11:19:08.141Z,327
2022-10-01T11:20:07.194Z,323
2022-10-01T11:21:07.366Z,326
2022-10-01T11:22:07.729Z,330
2022-10-01T11:23:08.191Z,329
2022-10-01T11:24:07.447Z,341
2022-10-01T11:25:07.711Z,338
2022-10-01T11:26:07.675Z,320
2022-10-01T11:27:07.409Z,353
2022-10-01T11:28:07.437Z,322
2022-10-01T11:29:07.707Z,331
2022-10-01T11:30:07.844Z,335
2022-10-01T11:31:08.096Z,342
2022-10-01T11:32:07.598Z,339
2022-10-01T11:33:07.670Z,335
2022-10-01T11:34:07.697Z,332
2022-10-01T11:35:07.777Z,331
2022-10-01T11:36:07.734Z,338
2022-10-01T11:37:07.776Z,344
2022-10-01T11:38:07.706Z,335
2022-10-01T11:39:07.809Z,330
2022-10-01T11:40:08.156Z,327
2022-10-01T11:41:07.328Z,324
2022-10-01T11:42:07.254Z,332
2022-10-01T11:43:07.555Z,315
2022-10-01T11:44:07.430Z,346
2022-10-01T11:45:07.600Z,323
2022-10-01T11:46:07.786Z,328
2022-10-01T11:47:07.845Z,331
2022-10-01T11:48:07.897Z,334
2022-10-01T11:49:07.819Z,328
2022-10-01T11:50:07.937Z,334
2022-10-01T11:51:08.027Z,347
2022-10-01T11:52:08.267Z,351
2022-10-01T11:53:07.701Z,337
2022-10-01T11:54:07.679Z,341
2022-10-01T11:55:07.994Z,339
2022-10-01T11:56:08.044Z,340
2022-10-01T11:57:08.095Z,334
2022-10-01T11:58:08.169Z,333
2022-10-01T11:59:08.277Z,335
2022-10-01T12:00:08.582Z,336
2022-10-01T12:01:08.238Z,340
2022-10-01T12:02:07.896Z,332
2022-10-01T12:03:08.273Z,333
2022-10-01T12:05:08.067Z,322
2022-10-01T12:06:07.790Z,314
2022-10-01T12:07:08.037Z,321
2022-10-01T12:08:08.001Z,316
2022-10-01T12:09:08.127Z,323
2022-10-01T12:10:07.335Z,331
2022-10-01T12:11:07.804Z,328
2022-10-01T12:12:08.050Z,323
2022-10-01T12:13:08.303Z,330
2022-10-01T12:14:07.582Z,325
2022-10-01T12:15:08.289Z,328
2022-10-01T12:16:07.600Z,331
2022-10-01T12:17:08.133Z,327
2022-10-01T12:18:07.753Z,331
2022-10-01T12:19:08.378Z,329
2022-10-01T12:20:08.186Z,330
2022-10-01T12:21:07.814Z,324
2022-10-01T12:22:08.263Z,327
2022-10-01T12:23:07.544Z,323
2022-10-01T12:24:07.882Z,331
2022-10-01T12:25:07.942Z,332
2022-10-01T12:26:08.086Z,336
2022-10-01T12:28:08.050Z,323
2022-10-01T12:29:07.622Z,330
2022-10-01T12:30:08.285Z,327
2022-10-01T12:31:07.640Z,336
2022-10-01T12:32:07.924Z,337
2022-10-01T12:33:08.256Z,342
2022-10-01T12:34:07.488Z,336
2022-10-01T12:35:07.762Z,334
2022-10-01T12:36:08.013Z,342
2022-10-01T12:37:08.123Z,336
2022-10-01T12:38:08.189Z,333
2022-10-01T12:39:07.618Z,325
2022-10-01T12:40:07.860Z,321
2022-10-01T12:41:08.131Z,320
2022-10-01T12:43:07.594Z,324
2022-10-01T12:44:07.676Z,332
2022-10-01T12:45:07.998Z,333
2022-10-01T12:46:08.360Z,343
2022-10-01T12:47:07.997Z,339
2022-10-01T12:48:08.506Z,332
2022-10-01T12:49:07.813Z,337
2022-10-01T12:50:08.132Z,328
2022-10-01T12:51:07.422Z,333
2022-10-01T12:53:08.186Z,340
2022-10-01T12:54:10.466Z,336
2022-10-01T12:55:07.716Z,326
2022-10-01T12:57:08.009Z,331
2022-10-01T12:58:07.228Z,325
2022-10-01T12:59:07.288Z,328
2022-10-01T13:00:08.455Z,343
2022-10-01T13:01:07.335Z,338
2022-10-01T13:02:07.868Z,323
2022-10-01T13:03:07.289Z,329
2022-10-01T13:04:07.743Z,334
2022-10-01T13:05:07.910Z,339
2022-10-01T13:06:08.216Z,360
2022-10-01T13:07:08.091Z,329
2022-10-01T13:08:08.399Z,330
2022-10-01T13:09:07.648Z,338
2022-10-01T13:10:07.931Z,337
2022-10-01T13:11:08.077Z,339
2022-10-01T13:12:07.963Z,332
2022-10-01T13:13:08.232Z,330
2022-10-01T13:14:07.388Z,326
2022-10-01T13:15:07.929Z,327
2022-10-01T13:16:08.346Z,335
2022-10-01T13:17:07.584Z,340
2022-10-01T13:18:07.868Z,342
2022-10-01T13:19:07.880Z,340
2022-10-01T13:20:08.147Z,337
2022-10-01T13:21:07.429Z,332
2022-10-01T13:22:07.540Z,312
2022-10-01T13:23:07.971Z,359
2022-10-01T13:24:08.471Z,338
2022-10-01T13:25:08.116Z,333
2022-10-01T13:26:07.304Z,324
2022-10-01T13:27:07.294Z,320
2022-10-01T13:28:07.261Z,326
2022-10-01T13:29:07.770Z,324
2022-10-01T13:30:08.458Z,331
2022-10-01T13:31:08.124Z,325
2022-10-01T13:32:07.733Z,331
2022-10-01T13:33:07.999Z,330
2022-10-01T13:34:07.855Z,340
2022-10-01T13:35:08.075Z,341
2022-10-01T13:36:08.049Z,335
2022-10-01T13:37:08.123Z,326
2022-10-01T13:38:07.803Z,318
2022-10-01T13:39:07.888Z,357
2022-10-01T13:40:08.090Z,319
2022-10-01T13:41:08.127Z,322
2022-10-01T13:42:08.148Z,328
2022-10-01T13:43:07.309Z,327
2022-10-01T13:44:07.473Z,329
2022-10-01T13:45:07.766Z,335
2022-10-01T13:46:07.556Z,332
2022-10-01T13:47:07.426Z,322
2022-10-01T13:48:07.467Z,328
2022-10-01T13:49:07.170Z,331
2022-10-01T13:50:08.392Z,321
2022-10-01T13:51:07.413Z,329
2022-10-01T13:52:08.234Z,321
2022-10-01T13:55:07.236Z,334
2022-10-01T13:56:07.864Z,324
2022-10-01T13:57:07.863Z,330
2022-10-01T13:58:07.883Z,325
2022-10-01T13:59:08.151Z,327
2022-10-01T14:00:08.155Z,323
2022-10-01T14:01:11.296Z,329
2022-10-01T14:02:07.897Z,336
2022-10-01T14:03:08.012Z,346
2022-10-01T14:04:07.114Z,335
2022-10-01T14:05:08.194Z,338
2022-10-01T14:07:07.957Z,348
2022-10-01T14:08:11.501Z,340
2022-10-01T14:09:07.954Z,341
2022-10-01T14:10:08.334Z,334
2022-10-01T14:11:08.253Z,330
2022-10-01T14:12:07.984Z,337
2022-10-01T14:13:08.447Z,330
2022-10-01T14:14:07.614Z,326
2022-10-01T14:15:08.427Z,330
2022-10-01T14:16:08.102Z,342
2022-10-01T14:17:07.328Z,355
2022-10-01T14:18:08.115Z,346
2022-10-01T14:19:08.512Z,333
2022-10-01T14:20:07.963Z,324
2022-10-01T14:21:08.174Z,336
2022-10-01T14:22:07.189Z,345
2022-10-01T14:23:08.175Z,338
2022-10-01T14:24:08.006Z,333
2022-10-01T14:25:08.205Z,335
2022-10-01T14:26:07.341Z,331
2022-10-01T14:27:07.347Z,338
2022-10-01T14:29:07.396Z,327
2022-10-01T14:30:07.462Z,333
2022-10-01T14:31:07.784Z,334
2022-10-01T14:32:07.860Z,325
2022-10-01T14:33:07.536Z,324
2022-10-01T14:34:07.393Z,335
2022-10-01T14:35:07.206Z,336
2022-10-01T14:36:07.993Z,332
2022-10-01T14:37:07.962Z,333
2022-10-01T14:38:07.769Z,339
2022-10-01T14:39:07.466Z,342
2022-10-01T14:40:07.480Z,347
2022-10-01T14:41:07.516Z,336
2022-10-01T14:42:14.267Z,332